createdAt,value
2019-04-26T00:00:55.097Z,16.68
2019-04-26T00:01:55.085Z,16.56
2019-04-26T00:02:55.805Z,16.46
2019-04-26T00:03:55.104Z,16.43
2019-04-26T00:04:55.055Z,16.53
2019-04-26T00:05:55.824Z,16.52
2019-04-26T00:06:55.032Z,16.43
2019-04-26T00:07:55.023Z,16.38
2019-04-26T00:08:55.041Z,16.41
2019-04-26T00:09:55.003Z,16.33
2019-04-26T00:10:55.014Z,16.30
2019-04-26T00:11:54.980Z,16.28
2019-04-26T00:12:55.690Z,16.38
2019-04-26T00:13:55.140Z,16.39
2019-04-26T00:14:54.948Z,16.50
2019-04-26T00:15:54.941Z,16.56
2019-04-26T00:16:54.952Z,16.60
2019-04-26T00:17:54.917Z,16.60
2019-04-26T00:18:54.956Z,16.58
2019-04-26T00:19:54.896Z,16.60
2019-04-26T00:20:54.886Z,16.61
2019-04-26T00:21:55.797Z,16.60
2019-04-26T00:22:54.865Z,16.60
2019-04-26T00:23:55.585Z,16.50
2019-04-26T00:24:54.865Z,16.34
2019-04-26T00:25:54.834Z,16.21
2019-04-26T00:26:54.824Z,16.12
2019-04-26T00:27:54.813Z,16.11
2019-04-26T00:28:54.803Z,16.07
2019-04-26T00:29:54.933Z,15.96
2019-04-26T00:30:54.781Z,16.00
2019-04-26T00:31:54.771Z,16.11
2019-04-26T00:32:54.757Z,16.17
2019-04-26T00:33:54.748Z,16.07
2019-04-26T00:34:54.772Z,16.12
2019-04-26T00:35:54.728Z,16.17
2019-04-26T00:36:54.717Z,16.20
2019-04-26T00:37:54.707Z,16.02
2019-04-26T00:38:54.696Z,15.87
2019-04-26T00:39:54.712Z,15.75
2019-04-26T00:40:54.677Z,15.71
2019-04-26T00:41:54.667Z,15.74
2019-04-26T00:42:57.515Z,15.74
2019-04-26T00:43:54.694Z,15.78
2019-04-26T00:44:55.227Z,15.83
2019-04-26T00:45:54.625Z,15.84
2019-04-26T00:46:54.606Z,15.84
2019-04-26T00:47:54.602Z,15.78
2019-04-26T00:48:54.595Z,15.75
2019-04-26T00:49:54.605Z,15.65
2019-04-26T00:50:54.594Z,15.67
2019-04-26T00:51:54.560Z,15.68
2019-04-26T00:52:54.644Z,15.54
2019-04-26T00:53:54.543Z,15.64
2019-04-26T00:54:54.559Z,15.65
2019-04-26T00:55:54.591Z,15.67
2019-04-26T00:56:55.313Z,15.56
2019-04-26T00:57:54.491Z,15.41
2019-04-26T00:58:54.480Z,15.29
2019-04-26T00:59:54.498Z,15.20
2019-04-26T01:00:54.459Z,15.19
2019-04-26T01:01:54.450Z,15.31
2019-04-26T01:02:54.454Z,15.31
2019-04-26T01:03:54.488Z,15.23
2019-04-26T01:04:54.477Z,15.16
2019-04-26T01:06:00.083Z,15.14
2019-04-26T01:06:55.416Z,15.13
2019-04-26T01:07:54.386Z,15.11
2019-04-26T01:08:54.382Z,15.16
2019-04-26T01:09:54.394Z,15.13
2019-04-26T01:10:54.362Z,15.14
2019-04-26T01:11:54.344Z,15.20
2019-04-26T01:12:54.334Z,15.31
2019-04-26T01:13:54.323Z,15.32
2019-04-26T01:14:54.343Z,15.34
2019-04-26T01:15:54.303Z,15.20
2019-04-26T01:16:54.293Z,15.13
2019-04-26T01:17:54.290Z,15.20
2019-04-26T01:18:54.269Z,15.14
2019-04-26T01:19:54.301Z,15.14
2019-04-26T01:20:54.251Z,15.11
2019-04-26T01:21:54.263Z,15.03
2019-04-26T01:22:54.258Z,14.96
2019-04-26T01:23:54.248Z,14.92
2019-04-26T01:24:54.237Z,14.94
2019-04-26T01:25:54.237Z,14.91
2019-04-26T01:26:54.186Z,14.92
2019-04-26T01:27:54.176Z,14.83
2019-04-26T01:28:54.167Z,14.73
2019-04-26T01:29:54.245Z,14.72
2019-04-26T01:30:54.145Z,14.83
2019-04-26T01:31:54.134Z,14.88
2019-04-26T01:32:54.134Z,14.94
2019-04-26T01:33:54.113Z,14.96
2019-04-26T01:34:54.104Z,14.99
2019-04-26T01:35:54.114Z,14.96
2019-04-26T01:36:54.103Z,14.83
2019-04-26T01:37:54.071Z,14.70
2019-04-26T01:38:54.060Z,14.68
2019-04-26T01:39:54.071Z,14.77
2019-04-26T01:40:54.070Z,14.78
2019-04-26T01:41:54.030Z,14.69
2019-04-26T01:42:54.019Z,14.69
2019-04-26T01:43:54.029Z,14.65
2019-04-26T01:44:53.993Z,14.64
2019-04-26T01:45:54.010Z,14.65
2019-04-26T01:46:53.975Z,14.61
2019-04-26T01:47:55.817Z,14.52
2019-04-26T01:48:53.967Z,14.51
2019-04-26T01:49:53.937Z,14.50
2019-04-26T01:50:53.961Z,14.47
2019-04-26T01:51:54.587Z,14.55
2019-04-26T01:52:53.906Z,14.51
2019-04-26T01:53:53.903Z,14.54
2019-04-26T01:54:53.894Z,14.61
2019-04-26T01:55:53.965Z,14.64
2019-04-26T01:56:53.873Z,14.69
2019-04-26T01:57:53.854Z,14.69
2019-04-26T01:58:53.843Z,14.73
2019-04-26T01:59:53.834Z,14.72
2019-04-26T02:00:56.401Z,14.73
2019-04-26T02:01:53.811Z,14.72
2019-04-26T02:02:53.801Z,14.70
2019-04-26T02:03:53.791Z,14.68
2019-04-26T02:04:53.809Z,14.69
2019-04-26T02:05:53.801Z,14.64
2019-04-26T02:06:53.758Z,14.64
2019-04-26T02:07:53.747Z,14.62
2019-04-26T02:08:53.772Z,14.51
2019-04-26T02:09:53.727Z,14.46
2019-04-26T02:10:53.764Z,14.45
2019-04-26T02:11:53.708Z,14.51
2019-04-26T02:12:55.138Z,14.52
2019-04-26T02:13:55.395Z,14.54
2019-04-26T02:14:53.735Z,14.55
2019-04-26T02:15:53.686Z,14.50
2019-04-26T02:16:53.683Z,14.50
2019-04-26T02:17:53.643Z,14.39
2019-04-26T02:18:53.633Z,14.15
2019-04-26T02:19:53.622Z,14.10
2019-04-26T02:20:53.642Z,14.00
2019-04-26T02:21:53.601Z,14.04
2019-04-26T02:22:53.590Z,14.09
2019-04-26T02:23:53.580Z,14.09
2019-04-26T02:24:53.570Z,14.07
2019-04-26T02:25:53.590Z,13.92
2019-04-26T02:26:53.550Z,13.82
2019-04-26T02:27:53.591Z,13.70
2019-04-26T02:28:53.527Z,13.66
2019-04-26T02:29:53.527Z,13.54
2019-04-26T02:30:53.505Z,13.59
2019-04-26T02:31:53.545Z,13.48
2019-04-26T02:32:53.484Z,13.42
2019-04-26T02:33:53.467Z,13.33
2019-04-26T02:34:53.479Z,13.25
2019-04-26T02:35:53.457Z,13.23
2019-04-26T02:36:58.610Z,13.20
2019-04-26T02:37:54.441Z,13.23
2019-04-26T02:38:53.424Z,13.23
2019-04-26T02:39:53.414Z,13.26
2019-04-26T02:40:53.403Z,13.28
2019-04-26T02:41:53.428Z,13.30
2019-04-26T02:42:53.373Z,13.33
2019-04-26T02:43:54.085Z,13.38
2019-04-26T02:44:53.396Z,13.42
2019-04-26T02:45:53.960Z,13.38
2019-04-26T02:46:53.364Z,13.32
2019-04-26T02:47:53.329Z,13.30
2019-04-26T02:48:53.367Z,13.30
2019-04-26T02:49:53.299Z,13.29
2019-04-26T02:50:53.308Z,13.30
2019-04-26T02:51:53.309Z,13.32
2019-04-26T02:52:53.273Z,13.32
2019-04-26T02:53:53.302Z,13.33
2019-04-26T02:54:53.246Z,13.32
2019-04-26T02:55:53.235Z,13.29
2019-04-26T02:56:53.258Z,13.28
2019-04-26T02:57:53.217Z,13.23
2019-04-26T02:58:53.210Z,13.25
2019-04-26T02:59:53.202Z,13.22
2019-04-26T03:00:53.209Z,13.12
2019-04-26T03:01:53.202Z,13.04
2019-04-26T03:02:53.959Z,13.08
2019-04-26T03:03:53.684Z,13.10
2019-04-26T03:04:53.157Z,13.10
2019-04-26T03:05:53.180Z,13.03
2019-04-26T03:07:03.037Z,12.97
2019-04-26T03:07:54.120Z,12.90
2019-04-26T03:08:53.110Z,12.82
2019-04-26T03:09:53.092Z,12.77
2019-04-26T03:10:53.079Z,12.72
2019-04-26T03:11:53.080Z,12.77
2019-04-26T03:12:53.087Z,12.75
2019-04-26T03:13:53.172Z,12.72
2019-04-26T03:14:53.037Z,12.72
2019-04-26T03:15:53.029Z,12.74
2019-04-26T03:16:53.051Z,12.74
2019-04-26T03:17:53.035Z,12.72
2019-04-26T03:18:52.997Z,12.71
2019-04-26T03:19:52.986Z,12.71
2019-04-26T03:20:52.981Z,12.77
2019-04-26T03:21:52.963Z,12.87
2019-04-26T03:22:52.981Z,12.92
2019-04-26T03:23:58.537Z,12.97
2019-04-26T03:24:53.940Z,13.01
2019-04-26T03:25:52.932Z,13.07
2019-04-26T03:26:52.922Z,13.08
2019-04-26T03:27:52.930Z,13.08
2019-04-26T03:28:53.639Z,13.07
2019-04-26T03:29:52.934Z,13.04
2019-04-26T03:30:54.260Z,13.03
2019-04-26T03:31:54.956Z,12.96
2019-04-26T03:32:54.178Z,12.95
2019-04-26T03:33:54.862Z,12.93
2019-04-26T03:34:55.044Z,12.90
2019-04-26T03:35:57.739Z,12.83
2019-04-26T03:36:53.848Z,12.79
2019-04-26T03:37:52.826Z,12.74
2019-04-26T03:38:52.785Z,12.71
2019-04-26T03:39:52.784Z,12.68
2019-04-26T03:40:52.764Z,12.60
2019-04-26T03:41:52.753Z,12.49
2019-04-26T03:42:52.781Z,12.41
2019-04-26T03:43:52.741Z,12.41
2019-04-26T03:44:52.842Z,12.37
2019-04-26T03:45:53.633Z,12.37
2019-04-26T03:46:52.702Z,12.35
2019-04-26T03:47:52.744Z,12.37
2019-04-26T03:48:52.680Z,12.35
2019-04-26T03:49:54.562Z,12.32
2019-04-26T03:50:52.660Z,12.32
2019-04-26T03:51:52.657Z,12.32
2019-04-26T03:52:52.648Z,12.29
2019-04-26T03:53:52.658Z,12.29
2019-04-26T03:54:52.620Z,12.28
2019-04-26T03:55:52.607Z,12.28
2019-04-26T03:56:52.672Z,12.28
2019-04-26T03:57:52.587Z,12.28
2019-04-26T03:58:52.604Z,12.28
2019-04-26T03:59:52.575Z,12.29
2019-04-26T04:00:54.255Z,12.28
2019-04-26T04:01:52.549Z,12.27
2019-04-26T04:02:53.314Z,12.27
2019-04-26T04:03:52.676Z,12.05
2019-04-26T04:04:52.519Z,11.99
2019-04-26T04:05:52.512Z,11.90
2019-04-26T04:07:03.818Z,11.90
2019-04-26T04:07:53.482Z,11.88
2019-04-26T04:08:52.500Z,11.95
2019-04-26T04:09:52.489Z,12.02
2019-04-26T04:10:52.469Z,12.13
2019-04-26T04:12:09.714Z,12.19
2019-04-26T04:12:53.445Z,12.24
2019-04-26T04:13:52.520Z,12.31
2019-04-26T04:14:52.463Z,12.35
2019-04-26T04:15:52.566Z,12.35
2019-04-26T04:16:52.396Z,12.41
2019-04-26T04:17:52.382Z,12.42
2019-04-26T04:18:54.073Z,12.46
2019-04-26T04:19:53.317Z,12.52
2019-04-26T04:20:52.355Z,12.54
2019-04-26T04:21:52.345Z,12.57
2019-04-26T04:22:52.334Z,12.60
2019-04-26T04:23:52.349Z,12.60
2019-04-26T04:24:52.393Z,12.64
2019-04-26T04:25:52.354Z,12.67
2019-04-26T04:26:53.204Z,12.65
2019-04-26T04:27:52.278Z,12.70
2019-04-26T04:28:53.276Z,12.74
2019-04-26T04:29:55.195Z,12.75
2019-04-26T04:30:52.749Z,12.78
2019-04-26T04:31:52.259Z,12.85
2019-04-26T04:32:52.292Z,12.87
2019-04-26T04:33:52.802Z,12.87
2019-04-26T04:34:52.738Z,12.90
2019-04-26T04:35:52.901Z,12.97
2019-04-26T04:36:53.761Z,13.00
2019-04-26T04:38:05.850Z,13.03
2019-04-26T04:38:55.045Z,13.07
2019-04-26T04:39:53.584Z,13.11
2019-04-26T04:40:53.428Z,13.19
2019-04-26T04:41:53.341Z,13.25
2019-04-26T04:42:52.537Z,13.29
2019-04-26T04:43:53.240Z,13.36
2019-04-26T04:44:52.101Z,13.41
2019-04-26T04:45:53.124Z,13.44
2019-04-26T04:46:53.939Z,13.48
2019-04-26T04:47:54.065Z,13.51
2019-04-26T04:48:52.731Z,13.54
2019-04-26T04:49:52.658Z,13.57
2019-04-26T04:50:52.637Z,13.60
2019-04-26T04:51:52.040Z,13.67
2019-04-26T04:52:52.247Z,13.71
2019-04-26T04:53:52.007Z,13.79
2019-04-26T04:55:05.127Z,13.84
2019-04-26T04:55:52.988Z,13.88
2019-04-26T04:56:52.026Z,13.92
2019-04-26T04:57:52.456Z,14.00
2019-04-26T04:58:52.490Z,14.06
2019-04-26T04:59:52.360Z,14.12
2019-04-26T05:00:51.941Z,14.18
2019-04-26T05:01:53.790Z,14.24
2019-04-26T05:02:51.960Z,14.28
2019-04-26T05:03:53.174Z,14.36
2019-04-26T05:04:53.168Z,14.40
2019-04-26T05:05:51.880Z,14.43
2019-04-26T05:06:51.871Z,14.46
2019-04-26T05:07:51.860Z,14.50
2019-04-26T05:08:52.998Z,14.52
2019-04-26T05:09:51.861Z,14.55
2019-04-26T05:10:51.996Z,14.58
2019-04-26T05:11:52.022Z,14.62
2019-04-26T05:12:52.123Z,14.69
2019-04-26T05:13:52.040Z,14.72
2019-04-26T05:14:52.226Z,14.78
2019-04-26T05:15:52.733Z,14.88
2019-04-26T05:16:52.589Z,14.95
2019-04-26T05:17:51.836Z,14.95
2019-04-26T05:18:52.729Z,14.91
2019-04-26T05:19:52.734Z,14.95
2019-04-26T05:20:51.716Z,14.83
2019-04-26T05:21:51.722Z,14.57
2019-04-26T05:22:51.696Z,14.61
2019-04-26T05:23:51.710Z,14.68
2019-04-26T05:24:51.720Z,14.81
2019-04-26T05:25:51.663Z,14.98
2019-04-26T05:26:51.663Z,15.09
2019-04-26T05:27:51.653Z,15.13
2019-04-26T05:28:51.763Z,15.16
2019-04-26T05:29:52.116Z,15.10
2019-04-26T05:30:52.068Z,15.16
2019-04-26T05:31:52.775Z,15.17
2019-04-26T05:32:52.638Z,15.28
2019-04-26T05:33:52.534Z,15.29
2019-04-26T05:34:52.760Z,15.43
2019-04-26T05:35:51.558Z,15.43
2019-04-26T05:36:52.669Z,15.44
2019-04-26T05:37:51.549Z,15.53
2019-04-26T05:38:51.528Z,15.64
2019-04-26T05:39:51.548Z,15.71
2019-04-26T05:40:51.640Z,15.72
2019-04-26T05:41:51.596Z,15.82
2019-04-26T05:42:51.728Z,15.82
2019-04-26T05:43:53.889Z,15.84
2019-04-26T05:44:51.889Z,15.94
2019-04-26T05:45:51.504Z,16.02
2019-04-26T05:46:51.687Z,16.08
2019-04-26T05:48:06.259Z,16.11
2019-04-26T05:48:53.571Z,16.23
2019-04-26T05:50:44.007Z,16.43
2019-04-26T05:51:44.908Z,16.45
2019-04-26T05:52:43.096Z,16.56
2019-04-26T05:53:43.084Z,16.58
2019-04-26T05:54:43.077Z,16.70
2019-04-26T05:55:43.109Z,16.71
2019-04-26T05:56:43.054Z,16.70
2019-04-26T05:57:43.048Z,16.73
2019-04-26T05:58:43.551Z,16.68
2019-04-26T05:59:43.543Z,16.85
2019-04-26T06:00:43.069Z,16.93
2019-04-26T06:01:43.943Z,16.93
2019-04-26T06:02:43.661Z,17.06
2019-04-26T06:03:42.994Z,17.19
2019-04-26T06:04:42.992Z,17.30
2019-04-26T06:05:42.980Z,17.38
2019-04-26T06:06:42.968Z,17.52
2019-04-26T06:07:43.601Z,17.52
2019-04-26T06:08:43.006Z,17.66
2019-04-26T06:09:43.479Z,17.74
2019-04-26T06:10:42.978Z,17.86
2019-04-26T06:11:43.579Z,17.97
2019-04-26T06:12:42.884Z,18.11
2019-04-26T06:13:42.945Z,18.27
2019-04-26T06:14:42.875Z,18.29
2019-04-26T06:15:43.578Z,18.23
2019-04-26T06:16:43.575Z,18.33
2019-04-26T06:17:42.837Z,18.35
2019-04-26T06:18:42.814Z,18.36
2019-04-26T06:19:42.825Z,18.41
2019-04-26T06:20:42.825Z,18.47
2019-04-26T06:21:43.707Z,18.55
2019-04-26T06:22:42.772Z,18.54
2019-04-26T06:23:42.761Z,18.55
2019-04-26T06:24:42.804Z,18.60
2019-04-26T06:25:43.262Z,18.66
2019-04-26T06:26:42.731Z,18.73
2019-04-26T06:27:42.718Z,18.76
2019-04-26T06:28:42.729Z,18.87
2019-04-26T06:29:42.716Z,18.94
2019-04-26T06:30:45.631Z,18.98
2019-04-26T06:31:42.689Z,18.95
2019-04-26T06:32:55.983Z,19.02
2019-04-26T06:33:43.668Z,19.04
2019-04-26T06:34:42.649Z,19.06
2019-04-26T06:35:42.637Z,18.95
2019-04-26T06:36:42.657Z,19.06
2019-04-26T06:37:42.617Z,19.13
2019-04-26T06:38:44.130Z,19.08
2019-04-26T06:39:42.650Z,19.07
2019-04-26T06:40:42.586Z,19.18
2019-04-26T06:41:42.626Z,19.16
2019-04-26T06:42:42.594Z,19.10
2019-04-26T06:43:42.588Z,19.04
2019-04-26T06:44:42.546Z,19.11
2019-04-26T06:45:42.534Z,19.04
2019-04-26T06:46:42.544Z,19.04
2019-04-26T06:47:42.540Z,19.11
2019-04-26T06:48:42.501Z,19.21
2019-04-26T06:49:43.142Z,19.19
2019-04-26T06:50:42.501Z,19.18
2019-04-26T06:51:42.500Z,19.16
2019-04-26T06:52:42.459Z,19.16
2019-04-26T06:53:42.452Z,19.13
2019-04-26T06:54:42.601Z,19.02
2019-04-26T06:55:42.449Z,19.00
2019-04-26T06:56:42.496Z,19.00
2019-04-26T06:57:42.447Z,18.94
2019-04-26T06:58:42.439Z,18.73
2019-04-26T06:59:42.418Z,18.82
2019-04-26T07:00:42.466Z,18.80
2019-04-26T07:01:42.422Z,18.57
2019-04-26T07:02:43.147Z,18.45
2019-04-26T07:03:42.335Z,18.69
2019-04-26T07:04:42.394Z,18.81
2019-04-26T07:05:42.315Z,18.95
2019-04-26T07:06:42.341Z,19.16
2019-04-26T07:07:43.137Z,19.10
2019-04-26T07:08:42.295Z,19.04
2019-04-26T07:09:42.309Z,18.75
2019-04-26T07:10:42.273Z,19.00
2019-04-26T07:11:42.335Z,18.92
2019-04-26T07:12:42.263Z,19.13
2019-04-26T07:13:42.751Z,19.26
2019-04-26T07:14:42.260Z,19.33
2019-04-26T07:15:42.210Z,19.39
2019-04-26T07:16:42.261Z,19.33
2019-04-26T07:17:42.207Z,19.43
2019-04-26T07:18:43.178Z,19.29
2019-04-26T07:19:42.190Z,19.11
2019-04-26T07:20:42.160Z,19.04
2019-04-26T07:21:42.287Z,18.91
2019-04-26T07:22:42.138Z,18.92
2019-04-26T07:23:43.076Z,19.29
2019-04-26T07:24:42.148Z,19.54
2019-04-26T07:25:42.156Z,19.40
2019-04-26T07:26:42.123Z,19.50
2019-04-26T07:27:42.096Z,19.62
2019-04-26T07:28:42.075Z,19.62
2019-04-26T07:29:42.103Z,19.48
2019-04-26T07:30:42.066Z,19.73
2019-04-26T07:31:42.103Z,20.01
2019-04-26T07:32:42.089Z,20.20
2019-04-26T07:33:42.032Z,20.13
2019-04-26T07:34:42.069Z,20.03
2019-04-26T07:35:42.011Z,20.21
2019-04-26T07:36:43.607Z,20.43
2019-04-26T07:37:42.132Z,20.58
2019-04-26T07:38:42.001Z,20.62
2019-04-26T07:39:41.960Z,20.80
2019-04-26T07:40:41.949Z,21.04
2019-04-26T07:41:41.978Z,20.91
2019-04-26T07:42:41.978Z,20.92
2019-04-26T07:43:41.960Z,21.07
2019-04-26T07:44:41.918Z,21.17
2019-04-26T07:45:41.898Z,21.10
2019-04-26T07:46:41.888Z,21.09
2019-04-26T07:47:41.972Z,21.10
2019-04-26T07:48:41.907Z,20.99
2019-04-26T07:49:41.885Z,21.06
2019-04-26T07:50:42.725Z,21.14
2019-04-26T07:51:41.865Z,21.22
2019-04-26T07:52:43.956Z,21.28
2019-04-26T07:53:41.833Z,21.28
2019-04-26T07:54:41.804Z,21.35
2019-04-26T07:55:42.594Z,21.53
2019-04-26T07:56:41.790Z,21.52
2019-04-26T07:57:41.891Z,21.64
2019-04-26T07:58:41.760Z,21.86
2019-04-26T07:59:41.775Z,21.90
2019-04-26T08:00:45.076Z,22.12
2019-04-26T08:01:42.771Z,22.02
2019-04-26T08:02:41.750Z,21.91
2019-04-26T08:03:41.722Z,21.83
2019-04-26T08:04:41.763Z,21.86
2019-04-26T08:05:42.389Z,21.62
2019-04-26T08:06:41.709Z,21.72
2019-04-26T08:07:41.699Z,21.72
2019-04-26T08:08:41.670Z,21.72
2019-04-26T08:09:41.656Z,21.65
2019-04-26T08:10:41.638Z,21.75
2019-04-26T08:11:41.638Z,21.28
2019-04-26T08:12:41.675Z,21.52
2019-04-26T08:13:41.628Z,21.59
2019-04-26T08:14:42.428Z,21.46
2019-04-26T08:15:41.582Z,21.53
2019-04-26T08:16:41.566Z,21.42
2019-04-26T08:17:41.592Z,21.50
2019-04-26T08:18:41.552Z,21.35
2019-04-26T08:19:41.591Z,21.47
2019-04-26T08:20:41.535Z,21.58
2019-04-26T08:21:42.580Z,21.69
2019-04-26T08:22:42.539Z,21.82
2019-04-26T08:23:42.377Z,21.83
2019-04-26T08:24:42.311Z,21.88
2019-04-26T08:25:41.479Z,21.99
2019-04-26T08:26:41.473Z,22.00
2019-04-26T08:27:41.566Z,22.14
2019-04-26T08:28:41.449Z,22.22
2019-04-26T08:29:41.439Z,22.30
2019-04-26T08:30:44.879Z,22.33
2019-04-26T08:31:42.415Z,22.46
2019-04-26T08:32:41.420Z,22.47
2019-04-26T08:33:48.597Z,22.51
2019-04-26T08:34:42.420Z,22.54
2019-04-26T08:35:44.347Z,22.57
2019-04-26T08:36:42.421Z,22.55
2019-04-26T08:37:42.261Z,22.54
2019-04-26T08:38:41.368Z,22.60
2019-04-26T08:39:45.654Z,22.54
2019-04-26T08:40:42.345Z,22.62
2019-04-26T08:41:41.337Z,22.70
2019-04-26T08:42:41.305Z,22.75
2019-04-26T08:43:41.354Z,22.70
2019-04-26T08:44:41.294Z,22.76
2019-04-26T08:45:44.132Z,22.80
2019-04-26T08:46:42.294Z,22.72
2019-04-26T08:47:41.285Z,22.80
2019-04-26T08:48:41.283Z,22.94
2019-04-26T08:49:41.223Z,23.01
2019-04-26T08:50:42.249Z,23.07
2019-04-26T08:51:41.220Z,23.02
2019-04-26T08:52:41.889Z,23.13
2019-04-26T08:53:41.240Z,23.23
2019-04-26T08:54:41.170Z,23.39
2019-04-26T08:55:41.171Z,23.39
2019-04-26T08:56:41.160Z,23.50
2019-04-26T08:57:41.172Z,23.65
2019-04-26T08:58:41.168Z,23.79
2019-04-26T08:59:41.130Z,23.98
2019-04-26T09:00:41.125Z,24.00
2019-04-26T09:01:42.031Z,24.16
2019-04-26T09:02:41.114Z,24.18
2019-04-26T09:03:41.112Z,24.15
2019-04-26T09:04:42.776Z,24.27
2019-04-26T09:05:41.057Z,24.37
2019-04-26T09:06:41.057Z,24.27
2019-04-26T09:07:41.046Z,24.40
2019-04-26T09:08:43.576Z,24.55
2019-04-26T09:09:41.027Z,24.71
2019-04-26T09:10:43.146Z,24.93
2019-04-26T09:11:41.003Z,24.98
2019-04-26T09:12:40.995Z,25.09
2019-04-26T09:13:40.972Z,25.17
2019-04-26T09:14:40.994Z,25.15
2019-04-26T09:15:40.954Z,25.15
2019-04-26T09:16:50.127Z,25.28
2019-04-26T09:17:41.970Z,25.08
2019-04-26T09:18:48.475Z,25.02
2019-04-26T09:19:41.941Z,25.00
2019-04-26T09:20:42.913Z,25.10
2019-04-26T09:21:40.950Z,25.15
2019-04-26T09:22:40.909Z,25.18
2019-04-26T09:23:44.368Z,25.39
2019-04-26T09:24:41.907Z,25.55
2019-04-26T09:25:40.870Z,25.72
2019-04-26T09:26:42.547Z,25.95
2019-04-26T09:27:41.868Z,26.02
2019-04-26T09:28:40.832Z,26.12
2019-04-26T09:29:40.846Z,26.17
2019-04-26T09:30:42.424Z,26.32
2019-04-26T09:31:40.797Z,26.33
2019-04-26T09:32:41.460Z,26.50
2019-04-26T09:33:41.579Z,26.60
2019-04-26T09:34:41.722Z,26.76
2019-04-26T09:35:40.781Z,26.75
2019-04-26T09:36:40.734Z,26.67
2019-04-26T09:37:40.725Z,26.55
2019-04-26T09:38:40.715Z,26.52
2019-04-26T09:39:42.089Z,26.60
2019-04-26T09:40:41.363Z,26.82
2019-04-26T09:41:40.684Z,26.84
2019-04-26T09:42:41.020Z,26.89
2019-04-26T09:43:40.663Z,27.00
2019-04-26T09:44:41.480Z,27.06
2019-04-26T09:45:40.641Z,27.00
2019-04-26T09:46:40.640Z,26.95
2019-04-26T09:47:40.631Z,27.04
2019-04-26T09:48:40.612Z,26.80
2019-04-26T09:49:42.313Z,26.89
2019-04-26T09:50:41.580Z,26.81
2019-04-26T09:51:40.581Z,26.85
2019-04-26T09:52:40.627Z,26.92
2019-04-26T09:53:43.333Z,26.95
2019-04-26T09:54:40.608Z,27.02
2019-04-26T09:55:40.567Z,27.13
2019-04-26T09:56:40.600Z,27.21
2019-04-26T09:57:40.567Z,27.31
2019-04-26T09:58:40.556Z,27.31
2019-04-26T09:59:41.186Z,27.40
2019-04-26T10:00:44.096Z,27.40
2019-04-26T10:01:41.475Z,27.29
2019-04-26T10:02:40.537Z,27.17
2019-04-26T10:03:40.455Z,27.09
2019-04-26T10:04:40.495Z,27.09
2019-04-26T10:05:40.456Z,27.09
2019-04-26T10:06:41.075Z,27.06
2019-04-26T10:07:40.415Z,27.09
2019-04-26T10:08:43.377Z,27.27
2019-04-26T10:09:41.984Z,27.34
2019-04-26T10:10:40.407Z,27.49
2019-04-26T10:11:43.525Z,27.46
2019-04-26T10:12:40.382Z,27.54
2019-04-26T10:13:40.391Z,27.55
2019-04-26T10:14:40.431Z,27.55
2019-04-26T10:15:40.345Z,27.59
2019-04-26T10:16:42.382Z,27.74
2019-04-26T10:17:40.981Z,27.82
2019-04-26T10:18:40.321Z,27.70
2019-04-26T10:19:41.079Z,27.81
2019-04-26T10:20:40.333Z,27.97
2019-04-26T10:21:40.313Z,28.12
2019-04-26T10:22:40.288Z,28.21
2019-04-26T10:23:40.292Z,28.18
2019-04-26T10:24:40.239Z,28.33
2019-04-26T10:25:40.268Z,28.37
2019-04-26T10:26:40.235Z,28.30
2019-04-26T10:27:40.753Z,28.27
2019-04-26T10:28:40.204Z,28.33
2019-04-26T10:29:40.191Z,28.27
2019-04-26T10:30:42.345Z,28.24
2019-04-26T10:31:40.167Z,28.12
2019-04-26T10:32:40.266Z,28.11
2019-04-26T10:33:41.006Z,28.03
2019-04-26T10:34:42.661Z,28.12
2019-04-26T10:35:41.155Z,28.14
2019-04-26T10:36:40.113Z,28.29
2019-04-26T10:37:43.964Z,28.49
2019-04-26T10:38:41.101Z,28.66
2019-04-26T10:39:40.083Z,28.70
2019-04-26T10:40:40.102Z,28.55
2019-04-26T10:41:40.074Z,28.54
2019-04-26T10:42:40.063Z,28.83
2019-04-26T10:43:40.542Z,29.04
2019-04-26T10:44:41.106Z,29.30
2019-04-26T10:45:40.068Z,29.34
2019-04-26T10:46:40.802Z,29.12
2019-04-26T10:47:40.017Z,28.61
2019-04-26T10:48:41.342Z,28.25
2019-04-26T10:49:40.769Z,28.06
2019-04-26T10:50:40.008Z,28.03
2019-04-26T10:51:41.908Z,27.96
2019-04-26T10:52:39.966Z,27.63
2019-04-26T10:53:39.939Z,27.65
2019-04-26T10:54:41.208Z,27.44
2019-04-26T10:55:39.957Z,27.31
2019-04-26T10:56:39.973Z,27.36
2019-04-26T10:57:39.998Z,27.31
2019-04-26T10:58:39.987Z,27.24
2019-04-26T10:59:44.029Z,27.40
2019-04-26T11:00:39.867Z,27.13
2019-04-26T11:01:39.916Z,27.03
2019-04-26T11:02:39.878Z,27.09
2019-04-26T11:03:39.853Z,27.19
2019-04-26T11:04:41.426Z,27.04
2019-04-26T11:05:39.822Z,27.07
2019-04-26T11:06:39.834Z,27.13
2019-04-26T11:07:39.822Z,26.80
2019-04-26T11:08:40.763Z,26.89
2019-04-26T11:09:39.775Z,26.87
2019-04-26T11:10:48.416Z,27.06
2019-04-26T11:11:40.890Z,27.02
2019-04-26T11:12:43.125Z,26.77
2019-04-26T11:13:41.150Z,26.69
2019-04-26T11:14:40.697Z,26.66
2019-04-26T11:15:39.722Z,26.66
2019-04-26T11:16:41.289Z,26.72
2019-04-26T11:17:39.699Z,26.65
2019-04-26T11:18:39.691Z,26.60
2019-04-26T11:19:39.712Z,26.35
2019-04-26T11:20:41.359Z,26.18
2019-04-26T11:21:40.689Z,26.12
2019-04-26T11:22:39.650Z,26.12
2019-04-26T11:23:41.045Z,26.21
2019-04-26T11:24:40.654Z,26.21
2019-04-26T11:25:39.615Z,26.30
2019-04-26T11:26:39.636Z,26.36
2019-04-26T11:27:40.126Z,26.37
2019-04-26T11:28:41.924Z,26.75
2019-04-26T11:29:39.685Z,27.17
2019-04-26T11:30:39.595Z,27.40
2019-04-26T11:31:39.615Z,27.50
2019-04-26T11:32:39.624Z,27.69
2019-04-26T11:33:44.995Z,27.63
2019-04-26T11:34:42.853Z,27.46
2019-04-26T11:35:39.529Z,26.99
2019-04-26T11:36:41.734Z,26.60
2019-04-26T11:37:40.489Z,26.35
2019-04-26T11:38:39.478Z,26.05
2019-04-26T11:39:42.001Z,25.79
2019-04-26T11:40:40.436Z,25.69
2019-04-26T11:41:39.473Z,25.57
2019-04-26T11:42:41.874Z,25.55
2019-04-26T11:43:40.432Z,25.43
2019-04-26T11:44:40.437Z,25.42
2019-04-26T11:45:39.422Z,25.35
2019-04-26T11:46:44.845Z,25.24
2019-04-26T11:47:54.254Z,25.13
2019-04-26T11:48:40.382Z,25.06
2019-04-26T11:49:41.483Z,25.13
2019-04-26T11:50:39.368Z,24.93
2019-04-26T11:51:39.368Z,24.85
2019-04-26T11:52:39.359Z,24.73
2019-04-26T11:53:40.461Z,24.65
2019-04-26T11:54:40.398Z,24.55
2019-04-26T11:55:39.308Z,24.49
2019-04-26T11:56:39.294Z,24.31
2019-04-26T11:57:40.070Z,24.20
2019-04-26T11:58:39.266Z,24.05
2019-04-26T11:59:46.298Z,23.87
2019-04-26T12:00:39.235Z,23.85
2019-04-26T12:01:40.445Z,23.84
2019-04-26T12:02:39.243Z,23.84
2019-04-26T12:03:39.203Z,23.83
2019-04-26T12:04:39.199Z,23.90
2019-04-26T12:05:39.193Z,24.00
2019-04-26T12:06:39.262Z,24.05
2019-04-26T12:07:39.271Z,24.15
2019-04-26T12:08:39.701Z,24.21
2019-04-26T12:09:39.141Z,24.31
2019-04-26T12:10:40.508Z,24.43
2019-04-26T12:11:49.439Z,24.83
2019-04-26T12:12:43.148Z,25.69
2019-04-26T12:13:40.098Z,26.26
2019-04-26T12:14:39.089Z,26.73
2019-04-26T12:15:43.578Z,26.43
2019-04-26T12:16:48.065Z,26.07
2019-04-26T12:17:40.087Z,25.80
2019-04-26T12:18:40.275Z,25.51
2019-04-26T12:19:39.037Z,25.32
2019-04-26T12:20:39.038Z,25.24
2019-04-26T12:21:39.024Z,25.55
2019-04-26T12:22:39.338Z,26.33
2019-04-26T12:23:38.998Z,26.60
2019-04-26T12:24:39.906Z,26.33
2019-04-26T12:25:43.212Z,26.10
2019-04-26T12:26:43.660Z,25.90
2019-04-26T12:27:40.045Z,25.76
2019-04-26T12:28:39.982Z,25.55
2019-04-26T12:29:38.934Z,25.30
2019-04-26T12:30:38.922Z,25.30
2019-04-26T12:31:38.912Z,25.08
2019-04-26T12:32:40.317Z,25.08
2019-04-26T12:33:42.989Z,24.99
2019-04-26T12:34:38.882Z,24.98
2019-04-26T12:35:38.872Z,25.42
2019-04-26T12:36:38.871Z,25.36
2019-04-26T12:37:39.937Z,25.10
2019-04-26T12:38:38.839Z,24.91
2019-04-26T12:39:38.866Z,24.73
2019-04-26T12:40:42.242Z,24.39
2019-04-26T12:41:40.907Z,24.10
2019-04-26T12:42:38.828Z,23.90
2019-04-26T12:43:38.789Z,23.63
2019-04-26T12:44:41.142Z,23.39
2019-04-26T12:45:38.795Z,23.12
2019-04-26T12:46:38.766Z,22.98
2019-04-26T12:47:40.080Z,22.90
2019-04-26T12:48:38.738Z,22.77
2019-04-26T12:49:38.727Z,22.55
2019-04-26T12:50:38.724Z,22.60
2019-04-26T12:51:42.806Z,22.52
2019-04-26T12:52:39.825Z,22.46
2019-04-26T12:53:40.715Z,22.35